Time;durP1;ratioP1;P1;durP2;ratioP2;P2;SDS_P1;SDS_P2;PMS_P1;PMS_P2;Temp;Humidity;BMP_temperature;BMP_pressure;BME280_temperature;BME280_humidity;BME280_pressure;Samples;Min_cycle;Max_cycle;Signal;HPM_P1;HPM_P2
2023/12/27 00:01:38;;;;;;;8.55;1.65;;;3.00;99.90;;;;;;5138676;27;20489;-84
2023/12/27 00:04:04;;;;;;;5.28;1.10;;;3.20;99.90;;;;;;5166906;27;20472;-84
2023/12/27 00:06:29;;;;;;;9.70;1.33;;;3.00;99.90;;;;;;5157594;27;20390;-83
2023/12/27 00:08:55;;;;;;;9.77;1.70;;;3.70;99.90;;;;;;5166029;27;20411;-84
2023/12/27 00:11:21;;;;;;;10.68;1.45;;;2.90;99.90;;;;;;5159395;27;20050;-84
2023/12/27 00:13:46;;;;;;;8.77;1.52;;;2.90;99.90;;;;;;5159250;27;20054;-84
2023/12/27 00:16:12;;;;;;;14.52;1.83;;;3.10;99.90;;;;;;5159118;27;20049;-84
2023/12/27 00:18:38;;;;;;;4.78;1.25;;;2.90;99.90;;;;;;5105898;27;20050;-84
2023/12/27 00:21:04;;;;;;;8.60;1.90;;;2.90;99.90;;;;;;5121016;27;20046;-85
2023/12/27 00:23:29;;;;;;;10.07;1.65;;;2.90;99.90;;;;;;5158820;27;20094;-85
2023/12/27 00:25:56;;;;;;;7.57;1.52;;;3.40;99.90;;;;;;5158808;27;20431;-84
2023/12/27 00:28:22;;;;;;;8.75;1.27;;;3.40;99.90;;;;;;5158500;27;20050;-84
2023/12/27 00:30:49;;;;;;;8.30;1.63;;;3.60;99.90;;;;;;5141394;27;20042;-84
2023/12/27 00:33:18;;;;;;;9.13;1.27;;;4.20;99.90;;;;;;5152133;27;20047;-84
2023/12/27 00:35:44;;;;;;;5.97;1.25;;;2.90;99.90;;;;;;5137929;27;20043;-84
2023/12/27 00:38:10;;;;;;;5.68;1.20;;;2.90;99.90;;;;;;5138268;27;20034;-84
2023/12/27 00:40:36;;;;;;;7.82;1.80;;;3.70;99.90;;;;;;5138152;27;20039;-84
2023/12/27 00:43:02;;;;;;;12.05;1.80;;;3.00;99.90;;;;;;5136825;27;20041;-84
2023/12/27 00:45:28;;;;;;;8.98;1.30;;;2.80;99.90;;;;;;5137463;27;20051;-84
2023/12/27 00:47:53;;;;;;;10.73;1.25;;;3.50;99.90;;;;;;5137493;27;20030;-84
2023/12/27 00:50:19;;;;;;;7.18;1.75;;;3.60;99.90;;;;;;5120418;27;20035;-84
2023/12/27 00:52:45;;;;;;;5.40;1.13;;;3.10;99.90;;;;;;5155116;27;20127;-84
2023/12/27 00:55:10;;;;;;;7.97;1.50;;;2.80;99.90;;;;;;5137906;27;20035;-84
2023/12/27 00:57:36;;;;;;;6.95;1.30;;;3.90;99.90;;;;;;5137570;27;20479;-84
2023/12/27 01:00:03;;;;;;;15.27;1.67;;;2.80;99.90;;;;;;5157120;27;20156;-84
2023/12/27 01:02:29;;;;;;;6.05;1.30;;;2.80;99.90;;;;;;5150669;27;20034;-84
2023/12/27 01:04:55;;;;;;;10.70;1.45;;;2.30;99.90;;;;;;5136160;27;20053;-84
2023/12/27 01:07:22;;;;;;;11.18;1.40;;;2.50;99.90;;;;;;5155100;27;20352;-84
2023/12/27 01:09:48;;;;;;;4.43;1.50;;;2.70;99.90;;;;;;5155679;27;20487;-85
2023/12/27 01:12:14;;;;;;;6.30;1.08;;;3.60;99.90;;;;;;5157096;27;20039;-85
2023/12/27 01:14:40;;;;;;;11.95;1.85;;;3.20;99.90;;;;;;5137459;27;20065;-85
2023/12/27 01:17:06;;;;;;;8.50;1.20;;;3.60;99.90;;;;;;5154963;27;20119;-85
2023/12/27 01:19:32;;;;;;;6.97;1.40;;;3.90;99.90;;;;;;5137222;27;20050;-85
2023/12/27 01:21:57;;;;;;;8.45;1.45;;;3.00;99.90;;;;;;5136677;27;20047;-84
2023/12/27 01:24:23;;;;;;;8.80;1.38;;;2.70;99.90;;;;;;5136862;27;20133;-84
2023/12/27 01:26:49;;;;;;;8.82;1.75;;;3.20;99.90;;;;;;5136892;27;20112;-85
2023/12/27 01:29:14;;;;;;;7.03;1.52;;;2.90;99.90;;;;;;5119667;27;20055;-84
2023/12/27 01:31:40;;;;;;;8.98;1.52;;;2.70;99.90;;;;;;5155099;27;20039;-85
2023/12/27 01:34:06;;;;;;;7.55;1.50;;;2.60;99.90;;;;;;5154696;27;20050;-85
2023/12/27 01:36:31;;;;;;;7.90;1.33;;;3.30;99.90;;;;;;5136609;27;20093;-84
2023/12/27 01:38:57;;;;;;;5.75;1.40;;;3.50;99.90;;;;;;5136291;27;20034;-85
2023/12/27 01:41:23;;;;;;;9.18;1.77;;;3.00;99.90;;;;;;5136678;27;20038;-85
2023/12/27 01:43:48;;;;;;;8.75;1.25;;;3.00;99.90;;;;;;5136319;27;20046;-85
2023/12/27 01:46:14;;;;;;;3.70;0.93;;;2.60;99.90;;;;;;5154567;27;20068;-85
2023/12/27 01:48:42;;;;;;;13.52;1.23;;;3.10;99.90;;;;;;5154932;27;20041;-85
2023/12/27 01:51:08;;;;;;;9.00;1.20;;;2.60;99.90;;;;;;5136504;27;20039;-85
2023/12/27 01:53:34;;;;;;;6.88;1.40;;;3.30;99.90;;;;;;5119584;27;20045;-85
2023/12/27 01:56:01;;;;;;;7.97;1.70;;;2.80;99.90;;;;;;5136090;27;20517;-85
2023/12/27 01:58:27;;;;;;;10.52;1.77;;;2.70;99.90;;;;;;5154880;27;20053;-84
2023/12/27 02:00:53;;;;;;;9.77;1.38;;;2.60;99.90;;;;;;5154438;27;20116;-85
2023/12/27 02:03:21;;;;;;;13.10;1.40;;;2.70;99.90;;;;;;5136027;27;20046;-85
2023/12/27 02:05:49;;;;;;;15.45;1.95;;;2.70;99.90;;;;;;5154479;27;20048;-85
2023/12/27 02:08:15;;;;;;;11.00;1.98;;;3.40;99.90;;;;;;5136228;27;20042;-85
2023/12/27 02:10:42;;;;;;;7.47;1.70;;;2.70;99.90;;;;;;5154575;27;20407;-84
2023/12/27 02:13:08;;;;;;;10.13;1.58;;;3.60;99.90;;;;;;5154614;27;20088;-84
2023/12/27 02:15:35;;;;;;;7.45;1.83;;;2.60;99.90;;;;;;5153621;27;20038;-84
2023/12/27 02:18:03;;;;;;;8.90;1.75;;;2.60;99.90;;;;;;5118589;27;20084;-85
2023/12/27 02:20:29;;;;;;;12.15;1.98;;;2.60;99.90;;;;;;5118395;27;20047;-84
2023/12/27 02:22:57;;;;;;;12.70;2.15;;;2.30;99.90;;;;;;5153642;27;20040;-84
2023/12/27 02:25:23;;;;;;;9.73;2.08;;;4.00;99.90;;;;;;5168242;27;20619;-85
2023/12/27 02:27:49;;;;;;;9.18;2.17;;;3.10;99.90;;;;;;5170944;27;20075;-84
2023/12/27 02:30:19;;;;;;;9.20;1.83;;;3.40;99.90;;;;;;5153626;27;20081;-85
2023/12/27 02:32:46;;;;;;;9.20;1.98;;;3.10;99.90;;;;;;5135079;27;20043;-84
2023/12/27 02:35:12;;;;;;;8.88;1.60;;;2.60;99.90;;;;;;5135733;27;20039;-85
2023/12/27 02:37:37;;;;;;;9.88;2.05;;;2.50;99.90;;;;;;5153568;27;20517;-85
2023/12/27 02:40:03;;;;;;;13.70;2.30;;;2.80;99.90;;;;;;5118782;27;20058;-85
2023/12/27 02:42:30;;;;;;;8.57;1.85;;;2.50;99.90;;;;;;5154049;27;20483;-85
2023/12/27 02:44:55;;;;;;;9.40;1.58;;;3.00;99.90;;;;;;5118340;27;20129;-85
2023/12/27 02:47:21;;;;;;;12.60;2.05;;;2.70;99.90;;;;;;5134897;27;20466;-85
2023/12/27 02:49:47;;;;;;;8.65;2.13;;;3.30;99.90;;;;;;5154012;27;20456;-85
2023/12/27 02:52:12;;;;;;;6.07;1.83;;;2.40;99.90;;;;;;5153701;27;20045;-85
2023/12/27 02:54:38;;;;;;;7.35;1.55;;;2.40;99.90;;;;;;5135097;27;20046;-85
2023/12/27 02:57:04;;;;;;;13.48;2.38;;;3.30;99.90;;;;;;5153840;27;20091;-85
2023/12/27 02:59:29;;;;;;;8.75;1.83;;;2.30;99.90;;;;;;5134940;27;20043;-85
2023/12/27 03:01:55;;;;;;;10.70;2.33;;;3.00;99.90;;;;;;5138451;27;20043;-84
2023/12/27 03:04:21;;;;;;;10.57;1.77;;;2.20;99.90;;;;;;5155939;27;20129;-84
2023/12/27 03:06:46;;;;;;;11.43;1.77;;;2.50;99.90;;;;;;5153041;27;20042;-84
2023/12/27 03:09:12;;;;;;;3.22;1.33;;;2.00;99.90;;;;;;5153633;27;20064;-85
2023/12/27 03:11:38;;;;;;;10.15;1.63;;;3.10;99.90;;;;;;5135403;27;20078;-85
2023/12/27 03:14:04;;;;;;;10.15;1.77;;;3.40;99.90;;;;;;5135201;27;20430;-85
2023/12/27 03:16:30;;;;;;;6.00;1.80;;;3.00;99.90;;;;;;5153690;27;20038;-85
2023/12/27 03:18:57;;;;;;;8.00;1.60;;;2.00;99.90;;;;;;5152927;27;20045;-84
2023/12/27 03:21:22;;;;;;;10.60;1.42;;;2.00;99.90;;;;;;5135611;27;20127;-85
2023/12/27 03:23:48;;;;;;;9.60;1.90;;;2.50;99.90;;;;;;5135198;27;20491;-84
2023/12/27 03:26:14;;;;;;;10.10;1.60;;;1.90;99.90;;;;;;5134671;27;20471;-85
2023/12/27 03:28:40;;;;;;;9.07;2.17;;;2.70;99.90;;;;;;5119204;27;20050;-84
2023/12/27 03:31:06;;;;;;;11.70;2.10;;;2.10;99.90;;;;;;5121907;27;20039;-85
2023/12/27 03:33:32;;;;;;;6.45;1.65;;;2.40;99.90;;;;;;5139155;27;20066;-84
2023/12/27 03:35:58;;;;;;;13.38;2.88;;;2.30;99.90;;;;;;5157158;27;20522;-84
2023/12/27 03:38:24;;;;;;;6.18;1.60;;;2.80;99.90;;;;;;5124350;27;20046;-84
2023/12/27 03:40:50;;;;;;;7.80;1.70;;;2.20;99.90;;;;;;5159692;27;20047;-84
2023/12/27 03:43:16;;;;;;;8.93;1.92;;;2.40;99.90;;;;;;5159741;27;20085;-85
2023/12/27 03:45:41;;;;;;;11.05;1.60;;;1.30;99.90;;;;;;5157531;27;20073;-84
2023/12/27 03:48:07;;;;;;;8.10;1.55;;;2.60;99.90;;;;;;5156815;27;20030;-84
2023/12/27 03:50:33;;;;;;;7.15;1.42;;;2.50;99.90;;;;;;5157391;27;20133;-85
2023/12/27 03:52:59;;;;;;;5.60;1.30;;;2.30;99.90;;;;;;5157315;27;20117;-84
2023/12/27 03:55:25;;;;;;;5.32;1.23;;;1.70;99.90;;;;;;5121719;27;20077;-84
2023/12/27 03:57:52;;;;;;;6.63;1.10;;;2.20;99.90;;;;;;5172429;27;20034;-84
2023/12/27 04:00:17;;;;;;;3.13;1.00;;;1.70;99.90;;;;;;5178209;27;20074;-84
2023/12/27 04:02:43;;;;;;;6.38;1.35;;;1.70;99.90;;;;;;5159273;27;20089;-84
2023/12/27 04:05:09;;;;;;;6.90;1.25;;;2.20;99.90;;;;;;5159690;27;20050;-85
2023/12/27 04:07:35;;;;;;;10.10;1.38;;;1.80;99.90;;;;;;5173366;27;20488;-85
2023/12/27 04:10:01;;;;;;;12.63;1.23;;;1.70;99.90;;;;;;5138449;27;20904;-84
2023/12/27 04:12:27;;;;;;;9.23;1.17;;;0.80;99.90;;;;;;5138326;27;20039;-85
2023/12/27 04:14:52;;;;;;;8.55;1.27;;;3.20;99.90;;;;;;5141425;27;20046;-84
2023/12/27 04:17:18;;;;;;;9.32;1.10;;;1.60;99.90;;;;;;5173737;27;20042;-85
2023/12/27 04:19:43;;;;;;;7.63;1.35;;;1.60;99.90;;;;;;5141943;27;20034;-85
2023/12/27 04:22:10;;;;;;;4.38;1.20;;;1.60;99.90;;;;;;5121218;27;20054;-85
2023/12/27 04:24:36;;;;;;;7.47;1.30;;;1.60;99.90;;;;;;5138181;27;20100;-85
2023/12/27 04:27:02;;;;;;;5.05;1.33;;;2.30;99.90;;;;;;5138127;27;20463;-85
2023/12/27 04:29:28;;;;;;;4.82;1.17;;;1.60;99.90;;;;;;5140910;27;20578;-85
2023/12/27 04:31:53;;;;;;;12.30;1.10;;;1.60;99.90;;;;;;5158717;27;20038;-85
2023/12/27 04:34:19;;;;;;;5.55;1.05;;;1.60;99.90;;;;;;5177394;27;20050;-86
2023/12/27 04:36:45;;;;;;;7.55;1.30;;;2.10;99.90;;;;;;5148526;27;20053;-85
2023/12/27 04:39:10;;;;;;;3.47;1.17;;;1.50;99.90;;;;;;5156237;27;20047;-85
2023/12/27 04:41:36;;;;;;;11.20;1.10;;;1.80;99.90;;;;;;5137974;27;20394;-85
2023/12/27 04:44:03;;;;;;;6.43;1.27;;;1.50;99.90;;;;;;5140770;27;20038;-85
2023/12/27 04:46:28;;;;;;;9.57;1.27;;;1.50;99.90;;;;;;5141276;27;20090;-83
2023/12/27 04:48:54;;;;;;;6.68;1.40;;;1.50;99.90;;;;;;5158462;27;20439;-84
2023/12/27 04:51:20;;;;;;;5.97;1.20;;;1.90;99.90;;;;;;5146402;27;20027;-84
2023/12/27 04:53:45;;;;;;;10.15;1.33;;;2.20;99.90;;;;;;5156223;27;20053;-84
2023/12/27 04:56:11;;;;;;;9.98;1.50;;;1.70;99.90;;;;;;5137815;27;20050;-84
2023/12/27 04:58:37;;;;;;;9.40;1.52;;;2.30;99.90;;;;;;5166853;27;20035;-83
2023/12/27 05:01:06;;;;;;;5.32;1.23;;;2.60;99.90;;;;;;5175931;27;20038;-84
2023/12/27 05:07:13;;;;;;;4.38;1.08;;;1.50;99.90;;;;;;5156112;27;20084;-84
2023/12/27 05:09:39;;;;;;;4.22;1.50;;;2.10;99.90;;;;;;5155970;27;20099;-84
2023/12/27 05:12:05;;;;;;;6.28;1.35;;;1.50;99.90;;;;;;5137320;27;20039;-84
2023/12/27 05:14:31;;;;;;;7.22;1.25;;;1.50;99.90;;;;;;5122962;27;20066;-83
2023/12/27 05:16:57;;;;;;;7.95;1.88;;;1.40;99.90;;;;;;5157840;27;20070;-84
2023/12/27 05:19:22;;;;;;;4.95;1.33;;;2.10;99.90;;;;;;5158311;27;20351;-84
2023/12/27 05:21:48;;;;;;;8.65;2.15;;;1.40;99.90;;;;;;5157776;27;20092;-84
2023/12/27 05:24:14;;;;;;;9.30;1.88;;;1.90;99.90;;;;;;5157716;27;20042;-83
2023/12/27 05:26:39;;;;;;;8.48;1.73;;;2.10;99.90;;;;;;5152345;27;20081;-83
2023/12/27 05:29:05;;;;;;;6.15;2.30;;;2.00;99.90;;;;;;5121663;27;20487;-83
2023/12/27 05:31:31;;;;;;;10.60;1.80;;;3.40;99.90;;;;;;5155966;27;20070;-84
2023/12/27 05:33:56;;;;;;;6.35;1.67;;;1.50;99.90;;;;;;5158992;27;20034;-84
2023/12/27 05:36:22;;;;;;;7.10;1.77;;;1.50;99.90;;;;;;5140018;27;20509;-84
2023/12/27 05:38:48;;;;;;;8.55;1.50;;;1.50;99.90;;;;;;5140100;27;20035;-83
2023/12/27 05:41:14;;;;;;;4.30;1.25;;;1.50;99.90;;;;;;5119536;27;20184;-84
2023/12/27 05:43:39;;;;;;;5.60;1.15;;;1.50;99.90;;;;;;5155274;27;20039;-84
2023/12/27 05:46:05;;;;;;;7.05;2.00;;;1.90;99.90;;;;;;5119383;27;20130;-85
2023/12/27 05:48:31;;;;;;;9.90;1.90;;;1.50;99.90;;;;;;5136006;27;20047;-85
2023/12/27 05:50:57;;;;;;;7.72;1.60;;;1.90;99.90;;;;;;5135529;27;20048;-85
2023/12/27 05:53:22;;;;;;;11.95;2.13;;;1.60;99.90;;;;;;5119212;27;20192;-84
2023/12/27 05:55:48;;;;;;;10.70;2.20;;;2.10;99.90;;;;;;5154942;27;20035;-85
2023/12/27 05:58:14;;;;;;;6.40;1.70;;;2.10;99.90;;;;;;5155202;27;20045;-85
2023/12/27 06:00:40;;;;;;;5.03;2.08;;;2.10;99.90;;;;;;5153338;27;20043;-84
2023/12/27 06:03:05;;;;;;;14.25;2.15;;;1.80;99.90;;;;;;5166031;27;20646;-87
2023/12/27 06:05:32;;;;;;;10.77;2.15;;;1.90;99.90;;;;;;5118785;27;20436;-85
2023/12/27 06:07:57;;;;;;;7.90;2.20;;;2.40;99.90;;;;;;5135659;27;20039;-85
2023/12/27 06:10:24;;;;;;;10.68;1.95;;;1.00;99.90;;;;;;5135540;27;20076;-85
2023/12/27 06:12:49;;;;;;;8.82;2.03;;;1.30;99.90;;;;;;5136346;27;20413;-85
2023/12/27 06:15:15;;;;;;;6.20;1.73;;;1.60;99.90;;;;;;5136245;27;20050;-84
2023/12/27 06:17:42;;;;;;;8.10;2.10;;;1.50;99.90;;;;;;5154121;27;20387;-85
2023/12/27 06:20:09;;;;;;;9.75;1.70;;;0.70;99.90;;;;;;5121263;27;20030;-86
2023/12/27 06:22:34;;;;;;;5.57;1.95;;;1.50;99.90;;;;;;5139375;27;20042;-85
2023/12/27 06:25:00;;;;;;;8.05;2.05;;;2.30;99.90;;;;;;5139128;27;20084;-85
2023/12/27 06:27:26;;;;;;;10.13;2.75;;;1.60;99.90;;;;;;5154524;27;20406;-85
2023/12/27 06:29:51;;;;;;;18.55;2.13;;;1.60;99.90;;;;;;5135405;27;20047;-86
2023/12/27 06:32:17;;;;;;;4.82;1.80;;;1.80;99.90;;;;;;5135652;27;20046;-85
2023/12/27 06:34:43;;;;;;;7.90;2.08;;;1.60;99.90;;;;;;5135693;27;20043;-84
2023/12/27 06:37:08;;;;;;;7.22;2.10;;;1.60;99.90;;;;;;5118600;27;20041;-85
2023/12/27 06:39:34;;;;;;;9.82;2.13;;;1.60;99.90;;;;;;5116529;27;20031;-85
2023/12/27 06:42:00;;;;;;;8.60;2.50;;;2.50;99.90;;;;;;5135823;27;20087;-85
2023/12/27 06:44:26;;;;;;;9.57;2.30;;;2.20;99.90;;;;;;5168455;27;20053;-86
2023/12/27 06:46:52;;;;;;;6.13;2.15;;;1.80;99.90;;;;;;5156309;27;20459;-84
2023/12/27 06:49:18;;;;;;;9.90;2.33;;;1.70;99.90;;;;;;5156306;27;20046;-85
2023/12/27 06:51:44;;;;;;;6.78;1.95;;;2.30;99.90;;;;;;5126528;27;20042;-84
2023/12/27 06:54:09;;;;;;;6.82;1.90;;;2.40;99.90;;;;;;5156548;27;20398;-83
2023/12/27 06:56:38;;;;;;;9.18;2.67;;;1.60;99.90;;;;;;5134915;27;20043;-84
2023/12/27 06:59:04;;;;;;;9.63;1.88;;;2.70;99.90;;;;;;5134846;27;20030;-85
2023/12/27 07:01:30;;;;;;;12.00;2.13;;;1.70;99.90;;;;;;5154001;27;20043;-85
2023/12/27 07:03:55;;;;;;;9.18;2.60;;;1.40;99.90;;;;;;5156997;27;20050;-83
2023/12/27 07:06:21;;;;;;;8.57;2.05;;;2.20;99.90;;;;;;5138826;27;20043;-85
2023/12/27 07:08:47;;;;;;;10.25;2.40;;;1.80;99.90;;;;;;5158715;27;20125;-85
2023/12/27 07:11:19;;;;;;;11.40;2.22;;;2.50;99.90;;;;;;5177930;27;20048;-84
2023/12/27 07:13:46;;;;;;;7.25;2.05;;;1.80;99.90;;;;;;5168417;27;20070;-84
2023/12/27 07:16:15;;;;;;;9.07;2.35;;;1.80;99.90;;;;;;5139958;27;20463;-84
2023/12/27 07:18:43;;;;;;;11.80;2.40;;;1.80;99.90;;;;;;5157899;27;20050;-84
2023/12/27 07:21:09;;;;;;;15.13;2.67;;;1.90;99.90;;;;;;5121962;27;20030;-87
2023/12/27 07:23:35;;;;;;;12.38;2.45;;;1.90;99.90;;;;;;5122580;27;20050;-85
2023/12/27 07:26:01;;;;;;;9.32;2.10;;;2.60;99.90;;;;;;5138796;27;20063;-84
2023/12/27 07:28:27;;;;;;;9.48;2.17;;;2.40;99.90;;;;;;5157816;27;20043;-84
2023/12/27 07:30:53;;;;;;;8.23;2.38;;;2.00;99.90;;;;;;5121361;27;20054;-86
2023/12/27 07:33:18;;;;;;;11.65;2.83;;;2.40;99.90;;;;;;5138778;27;20471;-86
2023/12/27 07:35:46;;;;;;;10.45;2.88;;;3.10;99.90;;;;;;5157681;27;20402;-85
2023/12/27 07:38:12;;;;;;;11.05;2.83;;;1.90;99.90;;;;;;5139423;27;20046;-85
2023/12/27 07:40:40;;;;;;;9.45;3.13;;;2.80;99.90;;;;;;5158468;27;20406;-85
2023/12/27 07:43:06;;;;;;;10.55;3.58;;;2.90;99.90;;;;;;5156215;27;20039;-85
2023/12/27 07:45:33;;;;;;;11.00;3.55;;;2.50;99.90;;;;;;5139317;27;20045;-85
2023/12/27 07:47:58;;;;;;;13.40;3.05;;;2.20;99.90;;;;;;5158299;27;20081;-85
2023/12/27 07:50:24;;;;;;;8.82;3.10;;;3.30;99.90;;;;;;5158346;27;20073;-86
2023/12/27 07:52:50;;;;;;;10.50;2.83;;;1.60;99.90;;;;;;5152548;27;20049;-86
2023/12/27 07:55:16;;;;;;;14.68;3.17;;;2.20;99.90;;;;;;5120427;27;20042;-86
2023/12/27 07:57:45;;;;;;;9.05;2.78;;;2.30;99.90;;;;;;5157291;27;20148;-87
2023/12/27 08:00:14;;;;;;;11.60;2.75;;;2.90;99.90;;;;;;5138604;27;20502;-86
2023/12/27 08:02:41;;;;;;;10.48;3.38;;;2.40;99.90;;;;;;5138795;27;20126;-86
2023/12/27 08:05:07;;;;;;;14.23;3.40;;;1.50;99.90;;;;;;5138524;27;20053;-85
2023/12/27 08:07:33;;;;;;;15.35;3.38;;;2.40;99.90;;;;;;5138283;27;20043;-86
2023/12/27 08:09:59;;;;;;;11.10;3.40;;;2.50;99.90;;;;;;5138696;27;20080;-86
2023/12/27 08:12:24;;;;;;;11.63;3.15;;;2.90;99.90;;;;;;5138406;27;20043;-86
2023/12/27 08:14:50;;;;;;;13.10;5.07;;;3.20;99.90;;;;;;5156325;27;20046;-86
2023/12/27 08:17:16;;;;;;;18.77;6.28;;;3.00;99.90;;;;;;5156930;27;20066;-89
2023/12/27 08:19:41;;;;;;;30.45;11.35;;;3.20;99.90;;;;;;5139165;27;20041;-87
2023/12/27 08:22:07;;;;;;;29.48;15.55;;;2.90;99.90;;;;;;5137730;27;20497;-85
2023/12/27 08:24:33;;;;;;;31.42;15.43;;;3.50;99.90;;;;;;5137858;27;20046;-86
2023/12/27 08:26:59;;;;;;;29.23;13.13;;;3.30;99.90;;;;;;5156817;27;20113;-85
2023/12/27 08:29:25;;;;;;;23.90;11.63;;;2.80;99.90;;;;;;5156361;27;20495;-85
2023/12/27 08:31:50;;;;;;;28.50;13.05;;;3.10;99.90;;;;;;5138150;27;20092;-85
2023/12/27 08:34:16;;;;;;;20.95;9.80;;;2.60;99.90;;;;;;5137397;27;20047;-84
2023/12/27 08:36:45;;;;;;;19.35;7.93;;;2.90;99.90;;;;;;5156637;27;20137;-85
2023/12/27 08:39:11;;;;;;;17.00;5.15;;;4.00;99.90;;;;;;5156513;27;20498;-85
2023/12/27 08:41:37;;;;;;;16.17;4.72;;;3.00;99.90;;;;;;5177471;27;20049;-86
2023/12/27 08:44:04;;;;;;;11.05;3.35;;;3.20;99.90;;;;;;5141020;27;20042;-85
2023/12/27 08:46:29;;;;;;;10.38;2.72;;;3.00;99.90;;;;;;5156620;27;20076;-85
2023/12/27 08:48:55;;;;;;;9.18;3.08;;;4.10;99.90;;;;;;5120674;27;20074;-85
2023/12/27 08:51:21;;;;;;;7.65;2.13;;;2.60;99.90;;;;;;5154954;27;20095;-85
2023/12/27 08:53:47;;;;;;;7.60;2.53;;;3.70;99.90;;;;;;5155996;27;20038;-85
2023/12/27 08:56:12;;;;;;;14.95;2.72;;;3.70;99.90;;;;;;5137757;27;20407;-86
2023/12/27 08:58:38;;;;;;;10.23;2.40;;;4.00;99.90;;;;;;5156013;27;20038;-85
2023/12/27 09:01:04;;;;;;;10.45;2.05;;;4.30;99.90;;;;;;5137446;27;20045;-86
2023/12/27 09:03:29;;;;;;;6.40;1.67;;;3.10;99.90;;;;;;5137362;27;20039;-86
2023/12/27 09:05:55;;;;;;;12.52;2.97;;;3.20;99.90;;;;;;5137213;27;20115;-86
2023/12/27 09:08:21;;;;;;;9.57;2.08;;;3.30;99.90;;;;;;5137259;27;20039;-86
2023/12/27 09:10:47;;;;;;;13.02;2.50;;;2.90;99.90;;;;;;5137498;27;20088;-85
2023/12/27 09:13:13;;;;;;;14.88;2.47;;;3.70;99.90;;;;;;5136880;27;20050;-85
2023/12/27 09:15:38;;;;;;;9.02;2.10;;;4.30;99.90;;;;;;5136235;27;20391;-86
2023/12/27 09:18:04;;;;;;;7.03;2.20;;;4.50;99.90;;;;;;5154973;27;20042;-88
2023/12/27 09:20:30;;;;;;;8.63;2.88;;;3.40;99.90;;;;;;5120137;27;20104;-90
2023/12/27 09:22:56;;;;;;;11.23;2.40;;;3.40;99.90;;;;;;5137471;27;20046;-87
2023/12/27 09:25:21;;;;;;;9.52;2.03;;;3.50;99.90;;;;;;5154754;27;20547;-85
2023/12/27 09:27:47;;;;;;;10.90;2.17;;;4.60;99.90;;;;;;5118719;27;20089;-86
2023/12/27 09:30:13;;;;;;;11.77;2.92;;;2.50;99.90;;;;;;5170324;27;20039;-85
2023/12/27 09:32:42;;;;;;;9.55;2.35;;;3.60;99.90;;;;;;5157429;27;20054;-84
2023/12/27 09:35:08;;;;;;;10.63;2.38;;;2.90;99.90;;;;;;5157370;27;20125;-84
2023/12/27 09:37:35;;;;;;;7.82;2.20;;;3.60;99.90;;;;;;5140104;27;20133;-84
2023/12/27 09:40:01;;;;;;;9.88;2.30;;;4.60;99.90;;;;;;5157310;27;20056;-85
2023/12/27 09:42:28;;;;;;;11.85;2.35;;;3.60;99.90;;;;;;5175845;27;20042;-84
2023/12/27 09:44:56;;;;;;;10.40;2.85;;;4.50;99.90;;;;;;5140043;27;20125;-85
2023/12/27 09:47:23;;;;;;;16.65;2.80;;;4.30;99.90;;;;;;5139781;27;20078;-84
2023/12/27 09:49:52;;;;;;;9.43;1.92;;;4.20;99.90;;;;;;5157304;27;20401;-84
2023/12/27 09:52:19;;;;;;;11.10;2.05;;;4.10;99.90;;;;;;5175669;27;20129;-85
2023/12/27 09:54:45;;;;;;;14.27;2.20;;;4.00;99.90;;;;;;5157220;27;20504;-86
2023/12/27 09:57:11;;;;;;;15.40;2.45;;;3.90;99.90;;;;;;5138706;27;20040;-86
2023/12/27 09:59:40;;;;;;;9.52;2.30;;;3.10;99.90;;;;;;5152565;27;20050;-84
2023/12/27 10:02:17;;;;;;;11.63;1.90;;;4.60;99.90;;;;;;5156885;27;20050;-85
2023/12/27 10:05:02;;;;;;;9.50;1.80;;;4.30;99.90;;;;;;5139459;27;20046;-85
2023/12/27 10:07:28;;;;;;;8.98;1.77;;;3.90;99.90;;;;;;5156943;27;20055;-85
2023/12/27 10:09:55;;;;;;;11.60;2.00;;;3.50;99.90;;;;;;5141363;27;20052;-85
2023/12/27 10:12:21;;;;;;;8.20;2.13;;;4.80;99.90;;;;;;5157075;27;20573;-85
2023/12/27 10:14:50;;;;;;;10.05;2.25;;;4.80;99.90;;;;;;5156932;27;20069;-85
2023/12/27 10:17:16;;;;;;;8.93;2.00;;;5.10;99.90;;;;;;5156750;27;20041;-85
2023/12/27 10:19:44;;;;;;;11.07;2.13;;;3.50;99.90;;;;;;5156842;27;20034;-85
2023/12/27 10:22:12;;;;;;;13.50;2.47;;;5.10;99.90;;;;;;5175580;27;20467;-85
2023/12/27 10:24:38;;;;;;;9.85;1.50;;;4.90;99.90;;;;;;5156419;27;20050;-85
2023/12/27 10:27:08;;;;;;;8.07;1.80;;;4.50;99.90;;;;;;5139335;27;20078;-85
2023/12/27 10:29:35;;;;;;;14.57;2.42;;;4.20;99.90;;;;;;5156585;27;20093;-85
2023/12/27 10:32:03;;;;;;;13.30;2.28;;;4.60;99.90;;;;;;5156575;27;20052;-85
2023/12/27 10:34:29;;;;;;;9.73;1.75;;;4.30;99.90;;;;;;5139538;27;20142;-85
2023/12/27 10:36:56;;;;;;;14.70;1.50;;;4.80;99.90;;;;;;5174984;27;20090;-85
2023/12/27 10:39:22;;;;;;;11.88;2.58;;;5.30;99.90;;;;;;5156567;27;20083;-84
2023/12/27 10:41:51;;;;;;;14.20;1.90;;;5.00;99.90;;;;;;5166373;27;20072;-86
2023/12/27 10:44:18;;;;;;;14.27;1.77;;;5.20;99.90;;;;;;5132033;27;20043;-86
2023/12/27 10:46:44;;;;;;;11.88;2.35;;;5.40;99.90;;;;;;5135828;27;20047;-86
2023/12/27 10:49:15;;;;;;;13.65;1.70;;;4.70;99.90;;;;;;5152391;27;20038;-86
2023/12/27 10:51:42;;;;;;;12.98;2.33;;;4.70;99.90;;;;;;5143517;27;20483;-87
2023/12/27 10:54:12;;;;;;;8.10;1.90;;;5.60;99.90;;;;;;5154230;27;20043;-86
2023/12/27 10:56:39;;;;;;;9.25;2.33;;;5.20;99.90;;;;;;5135616;27;20038;-87
2023/12/27 10:59:06;;;;;;;9.25;2.20;;;4.70;99.90;;;;;;5135750;27;20499;-87
2023/12/27 11:01:37;;;;;;;14.30;2.83;;;4.70;99.90;;;;;;5135858;27;20483;-89
2023/12/27 11:04:10;;;;;;;9.75;3.20;;;5.10;99.90;;;;;;5136695;27;20483;-90
2023/12/27 11:06:39;;;;;;;14.55;3.13;;;5.30;99.90;;;;;;5136092;27;20050;-88
2023/12/27 11:09:09;;;;;;;19.08;2.72;;;4.80;99.90;;;;;;5118559;27;20051;-88
2023/12/27 11:11:40;;;;;;;12.20;2.97;;;4.90;99.90;;;;;;5135096;27;20845;-86
2023/12/27 11:14:08;;;;;;;13.27;3.00;;;5.70;99.90;;;;;;5153818;27;20050;-85
2023/12/27 11:16:38;;;;;;;13.43;3.30;;;5.00;99.90;;;;;;5135879;27;20035;-86
2023/12/27 11:19:06;;;;;;;13.55;4.40;;;5.10;99.90;;;;;;5127389;27;20521;-87
2023/12/27 11:21:36;;;;;;;14.43;3.30;;;6.00;99.90;;;;;;5139166;27;20045;-87
2023/12/27 11:24:06;;;;;;;13.35;4.90;;;5.10;99.90;;;;;;5156045;27;20085;-87
2023/12/27 11:26:36;;;;;;;19.48;5.30;;;5.10;99.90;;;;;;5156179;27;20042;-86
2023/12/27 11:29:07;;;;;;;18.00;4.93;;;5.90;99.90;;;;;;5174611;27;20037;-86
2023/12/27 11:31:33;;;;;;;18.55;5.00;;;5.70;99.90;;;;;;5132152;27;20047;-86
2023/12/27 11:33:59;;;;;;;13.50;5.50;;;5.80;99.90;;;;;;5118043;27;20064;-87
2023/12/27 11:36:29;;;;;;;22.38;5.30;;;5.20;99.90;;;;;;5134938;27;20063;-86
2023/12/27 11:38:54;;;;;;;14.13;4.78;;;5.10;99.90;;;;;;5153970;27;20074;-86
2023/12/27 11:41:20;;;;;;;21.90;5.40;;;5.20;99.90;;;;;;5138806;27;20046;-87
2023/12/27 11:44:03;;;;;;;10.27;4.40;;;5.50;99.90;;;;;;5155993;27;20050;-86
2023/12/27 11:46:30;;;;;;;16.20;4.75;;;5.20;99.90;;;;;;5138061;27;20470;-87
2023/12/27 11:49:00;;;;;;;14.32;4.47;;;5.50;99.90;;;;;;5174518;27;20398;-87
2023/12/27 11:51:27;;;;;;;10.40;4.20;;;6.00;99.90;;;;;;5115244;27;20238;-87
2023/12/27 11:53:54;;;;;;;14.35;5.10;;;5.10;99.90;;;;;;5137896;27;20123;-87
2023/12/27 11:56:20;;;;;;;23.27;4.97;;;5.10;99.90;;;;;;5163102;27;20050;-87
2023/12/27 11:58:46;;;;;;;11.48;4.47;;;5.40;99.90;;;;;;5138655;27;20083;-88
2023/12/27 12:01:24;;;;;;;17.30;5.30;;;5.10;99.90;;;;;;5159862;27;20081;-87
2023/12/27 12:03:56;;;;;;;13.15;5.07;;;5.90;99.90;;;;;;5177959;27;20073;-87
2023/12/27 12:06:40;;;;;;;13.65;5.70;;;5.40;99.90;;;;;;5178003;27;20042;-88
2023/12/27 12:09:07;;;;;;;17.60;5.75;;;5.20;99.90;;;;;;5158539;27;20047;-87
2023/12/27 12:11:36;;;;;;;21.20;5.40;;;5.90;99.90;;;;;;5156953;27;20544;-87
2023/12/27 12:14:03;;;;;;;17.13;5.90;;;5.20;99.90;;;;;;5159215;27;20049;-87
2023/12/27 12:16:32;;;;;;;18.92;5.97;;;5.50;99.90;;;;;;5159341;27;20054;-87
2023/12/27 12:19:03;;;;;;;14.00;5.47;;;6.10;99.90;;;;;;5159242;27;20393;-87
2023/12/27 12:21:30;;;;;;;21.35;6.22;;;5.10;99.90;;;;;;5159328;27;20482;-86
2023/12/27 12:23:56;;;;;;;13.30;5.60;;;5.20;99.90;;;;;;5140674;27;20095;-86
2023/12/27 12:26:21;;;;;;;18.75;5.88;;;6.20;99.90;;;;;;5121785;27;20403;-87
2023/12/27 12:28:58;;;;;;;17.50;5.68;;;5.60;99.90;;;;;;5137652;27;20038;-87
2023/12/27 12:31:24;;;;;;;15.93;6.05;;;5.10;99.90;;;;;;5117610;27;20043;-87
2023/12/27 12:33:49;;;;;;;14.35;6.30;;;5.10;99.90;;;;;;5117137;27;20437;-87
2023/12/27 12:36:16;;;;;;;22.90;6.93;;;5.60;99.90;;;;;;5149781;27;20046;-88
2023/12/27 12:38:42;;;;;;;15.55;6.15;;;5.60;99.90;;;;;;5138181;27;20518;-86
2023/12/27 12:41:09;;;;;;;16.08;7.05;;;5.50;99.90;;;;;;5138228;27;20066;-87
2023/12/27 12:43:35;;;;;;;17.70;7.22;;;5.60;99.90;;;;;;5136249;27;20050;-87
2023/12/27 12:46:01;;;;;;;20.85;8.18;;;5.00;99.90;;;;;;5102436;27;20035;-86
2023/12/27 12:48:27;;;;;;;20.77;7.68;;;5.80;99.90;;;;;;5137893;27;20119;-86
2023/12/27 12:51:13;;;;;;;16.88;7.13;;;5.90;99.90;;;;;;5137690;27;20050;-86
2023/12/27 12:53:39;;;;;;;22.05;7.57;;;5.10;99.90;;;;;;5119470;27;20376;-87